sensor_id;sensor_type;location;lat;lon;timestamp;pressure;altitude;pressure_sealevel;temperature;humidity
72116;BME280;59991;52.140;5.428;2023-02-23T00:00:21;101337.72;;;7.72;100.00
72116;BME280;59991;52.140;5.428;2023-02-23T00:00:58;101335.78;;;7.72;100.00
72116;BME280;59991;52.140;5.428;2023-02-23T00:01:29;101340.00;;;7.70;100.00
72116;BME280;59991;52.140;5.428;2023-02-23T00:02:01;101328.38;;;7.69;100.00
72116;BME280;59991;52.140;5.428;2023-02-23T00:02:36;101340.00;;;7.70;100.00
72116;BME280;59991;52.140;5.428;2023-02-23T00:03:07;101343.16;;;7.72;100.00
72116;BME280;59991;52.140;5.428;2023-02-23T00:03:39;101352.09;;;7.72;100.00
72116;BME280;59991;52.140;5.428;2023-02-23T00:04:11;101340.78;;;7.70;100.00
72116;BME280;59991;52.140;5.428;2023-02-23T00:04:42;101337.66;;;7.68;100.00
72116;BME280;59991;52.140;5.428;2023-02-23T00:05:15;101348.56;;;7.72;100.00
72116;BME280;59991;52.140;5.428;2023-02-23T00:05:47;101346.19;;;7.70;100.00
72116;BME280;59991;52.140;5.428;2023-02-23T00:06:18;101340.00;;;7.70;100.00
72116;BME280;59991;52.140;5.428;2023-02-23T00:06:51;101351.28;;;7.72;100.00
72116;BME280;59991;52.140;5.428;2023-02-23T00:07:23;101347.00;;;7.71;100.00
72116;BME280;59991;52.140;5.428;2023-02-23T00:07:57;101349.63;;;7.67;100.00
72116;BME280;59991;52.140;5.428;2023-02-23T00:08:28;101345.78;;;7.68;100.00
72116;BME280;59991;52.140;5.428;2023-02-23T00:09:01;101348.50;;;7.68;100.00
72116;BME280;59991;52.140;5.428;2023-02-23T00:09:37;101356.31;;;7.70;100.00
72116;BME280;59991;52.140;5.428;2023-02-23T00:10:10;101342.28;;;7.68;100.00
72116;BME280;59991;52.140;5.428;2023-02-23T00:10:42;101344.19;;;7.67;100.00
72116;BME280;59991;52.140;5.428;2023-02-23T00:11:15;101344.53;;;7.66;100.00
72116;BME280;59991;52.140;5.428;2023-02-23T00:11:54;101354.72;;;7.69;100.00
72116;BME280;59991;52.140;5.428;2023-02-23T00:12:26;101347.25;;;7.66;100.00
72116;BME280;59991;52.140;5.428;2023-02-23T00:12:58;101342.53;;;7.62;100.00
72116;BME280;59991;52.140;5.428;2023-02-23T00:13:32;101346.13;;;7.67;100.00
72116;BME280;59991;52.140;5.428;2023-02-23T00:14:07;101342.53;;;7.62;100.00
72116;BME280;59991;52.140;5.428;2023-02-23T00:14:39;101351.56;;;7.67;100.00
72116;BME280;59991;52.140;5.428;2023-02-23T00:15:10;101339.00;;;7.62;100.00
72116;BME280;59991;52.140;5.428;2023-02-23T00:15:43;101339.00;;;7.62;100.00
72116;BME280;59991;52.140;5.428;2023-02-23T00:16:17;101341.50;;;7.67;100.00
72116;BME280;59991;52.140;5.428;2023-02-23T00:16:49;101347.72;;;7.68;100.00
72116;BME280;59991;52.140;5.428;2023-02-23T00:17:20;101346.91;;;7.67;100.00
72116;BME280;59991;52.140;5.428;2023-02-23T00:17:56;101339.13;;;7.66;100.00
72116;BME280;59991;52.140;5.428;2023-02-23T00:18:27;101346.91;;;7.67;100.00
72116;BME280;59991;52.140;5.428;2023-02-23T00:19:00;101342.28;;;7.68;100.00
72116;BME280;59991;52.140;5.428;2023-02-23T00:19:32;101335.63;;;7.65;100.00
72116;BME280;59991;52.140;5.428;2023-02-23T00:20:10;101341.94;;;7.69;100.00
72116;BME280;59991;52.140;5.428;2023-02-23T00:20:42;101343.41;;;7.67;100.00
72116;BME280;59991;52.140;5.428;2023-02-23T00:21:31;101343.41;;;7.67;100.00
72116;BME280;59991;52.140;5.428;2023-02-23T00:22:05;101337.09;;;7.62;100.00
72116;BME280;59991;52.140;5.428;2023-02-23T00:22:40;101336.75;;;7.64;100.00
72116;BME280;59991;52.140;5.428;2023-02-23T00:23:12;101335.50;;;7.61;100.00
72116;BME280;59991;52.140;5.428;2023-02-23T00:23:52;101339.81;;;7.62;100.00
72116;BME280;59991;52.140;5.428;2023-02-23T00:24:24;101334.38;;;7.62;100.00
72116;BME280;59991;52.140;5.428;2023-02-23T00:24:57;101337.44;;;7.61;100.00
72116;BME280;59991;52.140;5.428;2023-02-23T00:25:30;101333.13;;;7.60;100.00
72116;BME280;59991;52.140;5.428;2023-02-23T00:26:04;101344.78;;;7.60;100.00
72116;BME280;59991;52.140;5.428;2023-02-23T00:26:38;101340.16;;;7.61;100.00
72116;BME280;59991;52.140;5.428;2023-02-23T00:27:10;101331.09;;;7.57;100.00
72116;BME280;59991;52.140;5.428;2023-02-23T00:27:47;101327.25;;;7.58;100.00
72116;BME280;59991;52.140;5.428;2023-02-23T00:28:19;101332.78;;;7.61;100.00
72116;BME280;59991;52.140;5.428;2023-02-23T00:28:54;101333.94;;;7.60;100.00
72116;BME280;59991;52.140;5.428;2023-02-23T00:29:25;101333.47;;;7.58;100.00
72116;BME280;59991;52.140;5.428;2023-02-23T00:29:57;101327.72;;;7.60;100.00
72116;BME280;59991;52.140;5.428;2023-02-23T00:30:28;101331.91;;;7.57;100.00
72116;BME280;59991;52.140;5.428;2023-02-23T00:31:01;101326.03;;;7.55;100.00
72116;BME280;59991;52.140;5.428;2023-02-23T00:31:34;101331.44;;;7.55;100.00
72116;BME280;59991;52.140;5.428;2023-02-23T00:32:06;101327.25;;;7.58;100.00
72116;BME280;59991;52.140;5.428;2023-02-23T00:32:38;101331.00;;;7.53;100.00
72116;BME280;59991;52.140;5.428;2023-02-23T00:33:10;101329.88;;;7.54;100.00
72116;BME280;59991;52.140;5.428;2023-02-23T00:33:42;101333.03;;;7.56;100.00
72116;BME280;59991;52.140;5.428;2023-02-23T00:34:17;101334.94;;;7.56;100.00
72116;BME280;59991;52.140;5.428;2023-02-23T00:34:53;101332.59;;;7.54;100.00
72116;BME280;59991;52.140;5.428;2023-02-23T00:35:25;101319.69;;;7.51;100.00
72116;BME280;59991;52.140;5.428;2023-02-23T00:36:03;101330.66;;;7.55;100.00
72116;BME280;59991;52.140;5.428;2023-02-23T00:36:35;101329.06;;;7.54;100.00
72116;BME280;59991;52.140;5.428;2023-02-23T00:37:07;101322.41;;;7.51;100.00
72116;BME280;59991;52.140;5.428;2023-02-23T00:37:39;101327.03;;;7.51;100.00
72116;BME280;59991;52.140;5.428;2023-02-23T00:38:10;101322.78;;;7.50;100.00
72116;BME280;59991;52.140;5.428;2023-02-23T00:38:41;101331.00;;;7.53;100.00
72116;BME280;59991;52.140;5.428;2023-02-23T00:39:15;101329.06;;;7.54;100.00
72116;BME280;59991;52.140;5.428;2023-02-23T00:39:55;101331.78;;;7.54;100.00
72116;BME280;59991;52.140;5.428;2023-02-23T00:40:27;101331.00;;;7.53;100.00
72116;BME280;59991;52.140;5.428;2023-02-23T00:40:59;101324.34;;;7.51;100.00
72116;BME280;59991;52.140;5.428;2023-02-23T00:41:31;101320.16;;;7.53;100.00
72116;BME280;59991;52.140;5.428;2023-02-23T00:42:02;101328.28;;;7.53;100.00
72116;BME280;59991;52.140;5.428;2023-02-23T00:42:36;101323.56;;;7.50;100.00
72116;BME280;59991;52.140;5.428;2023-02-23T00:43:08;101322.41;;;7.51;100.00
72116;BME280;59991;52.140;5.428;2023-02-23T00:43:40;101328.28;;;7.53;100.00
72116;BME280;59991;52.140;5.428;2023-02-23T00:44:23;101326.69;;;7.52;100.00
72116;BME280;59991;52.140;5.428;2023-02-23T00:44:55;101331.44;;;7.55;100.00
72116;BME280;59991;52.140;5.428;2023-02-23T00:45:27;101327.50;;;7.53;100.00
72116;BME280;59991;52.140;5.428;2023-02-23T00:46:20;101332.59;;;7.54;100.00
72116;BME280;59991;52.140;5.428;2023-02-23T00:47:12;101327.16;;;7.54;100.00
72116;BME280;59991;52.140;5.428;2023-02-23T00:48:04;101331.00;;;7.53;100.00
72116;BME280;59991;52.140;5.428;2023-02-23T00:48:41;101334.06;;;7.52;100.00
72116;BME280;59991;52.140;5.428;2023-02-23T00:49:12;101331.34;;;7.52;100.00
72116;BME280;59991;52.140;5.428;2023-02-23T00:49:44;101337.91;;;7.51;100.00
72116;BME280;59991;52.140;5.428;2023-02-23T00:50:16;101336.34;;;7.50;100.00
72116;BME280;59991;52.140;5.428;2023-02-23T00:50:57;101333.97;;;7.48;100.00
72116;BME280;59991;52.140;5.428;2023-02-23T00:51:28;101333.19;;;7.48;100.00
72116;BME280;59991;52.140;5.428;2023-02-23T00:52:11;101327.31;;;7.46;100.00
72116;BME280;59991;52.140;5.428;2023-02-23T00:52:44;101335.19;;;7.51;100.00
72116;BME280;59991;52.140;5.428;2023-02-23T00:53:16;101332.84;;;7.49;100.00
72116;BME280;59991;52.140;5.428;2023-02-23T00:53:48;101323.91;;;7.49;100.00
72116;BME280;59991;52.140;5.428;2023-02-23T00:54:20;101326.28;;;7.50;100.00
72116;BME280;59991;52.140;5.428;2023-02-23T00:54:52;101327.75;;;7.48;100.00
72116;BME280;59991;52.140;5.428;2023-02-23T00:55:23;101329.69;;;7.47;100.00
72116;BME280;59991;52.140;5.428;2023-02-23T00:55:55;101331.25;;;7.48;100.00
72116;BME280;59991;52.140;5.428;2023-02-23T00:56:27;101321.88;;;7.46;100.00
72116;BME280;59991;52.140;5.428;2023-02-23T00:56:58;101328.09;;;7.46;100.00
72116;BME280;59991;52.140;5.428;2023-02-23T00:57:30;101326.06;;;7.43;100.00
72116;BME280;59991;52.140;5.428;2023-02-23T00:58:01;101331.50;;;7.43;100.00
72116;BME280;59991;52.140;5.428;2023-02-23T00:58:35;101328.00;;;7.43;100.00
72116;BME280;59991;52.140;5.428;2023-02-23T00:59:06;101335.78;;;7.44;100.00
72116;BME280;59991;52.140;5.428;2023-02-23T00:59:38;101326.41;;;7.42;100.00
72116;BME280;59991;52.140;5.428;2023-02-23T01:00:10;101331.94;;;7.45;100.00
72116;BME280;59991;52.140;5.428;2023-02-23T01:00:50;101337.38;;;7.45;100.00
72116;BME280;59991;52.140;5.428;2023-02-23T01:01:23;101335.78;;;7.44;100.00
72116;BME280;59991;52.140;5.428;2023-02-23T01:01:55;101327.19;;;7.42;100.00
72116;BME280;59991;52.140;5.428;2023-02-23T01:02:27;101334.66;;;7.45;100.00
72116;BME280;59991;52.140;5.428;2023-02-23T01:03:00;101338.16;;;7.46;100.00
72116;BME280;59991;52.140;5.428;2023-02-23T01:03:32;101329.13;;;7.42;100.00
72116;BME280;59991;52.140;5.428;2023-02-23T01:04:04;101334.66;;;7.45;100.00
72116;BME280;59991;52.140;5.428;2023-02-23T01:04:37;101334.66;;;7.45;100.00
72116;BME280;59991;52.140;5.428;2023-02-23T01:05:09;101330.81;;;7.46;100.00
72116;BME280;59991;52.140;5.428;2023-02-23T01:05:41;101326.84;;;7.44;100.00
72116;BME280;59991;52.140;5.428;2023-02-23T01:06:15;101331.16;;;7.45;100.00
72116;BME280;59991;52.140;5.428;2023-02-23T01:06:50;101326.84;;;7.44;100.00
72116;BME280;59991;52.140;5.428;2023-02-23T01:07:23;101321.44;;;7.44;100.00
72116;BME280;59991;52.140;5.428;2023-02-23T01:07:59;101329.22;;;7.45;100.00
72116;BME280;59991;52.140;5.428;2023-02-23T01:08:32;101323.00;;;7.45;100.00
72116;BME280;59991;52.140;5.428;2023-02-23T01:09:09;101332.41;;;7.47;100.00
72116;BME280;59991;52.140;5.428;2023-02-23T01:09:41;101336.25;;;7.46;100.00
72116;BME280;59991;52.140;5.428;2023-02-23T01:10:12;101336.25;;;7.46;100.00
72116;BME280;59991;52.140;5.428;2023-02-23T01:10:50;101323.69;;;7.42;100.00
72116;BME280;59991;52.140;5.428;2023-02-23T01:11:27;101328.34;;;7.41;100.00
72116;BME280;59991;52.140;5.428;2023-02-23T01:12:01;101326.41;;;7.42;100.00
72116;BME280;59991;52.140;5.428;2023-02-23T01:12:40;101331.50;;;7.43;100.00
72116;BME280;59991;52.140;5.428;2023-02-23T01:13:12;101321.66;;;7.39;100.00
72116;BME280;59991;52.140;5.428;2023-02-23T01:13:44;101330.59;;;7.39;100.00
72116;BME280;59991;52.140;5.428;2023-02-23T01:14:17;101329.91;;;7.42;100.00
72116;BME280;59991;52.140;5.428;2023-02-23T01:14:49;101329.91;;;7.42;100.00
72116;BME280;59991;52.140;5.428;2023-02-23T01:15:20;101330.59;;;7.39;100.00
72116;BME280;59991;52.140;5.428;2023-02-23T01:15:52;101329.13;;;7.42;100.00
72116;BME280;59991;52.140;5.428;2023-02-23T01:16:26;101331.03;;;7.41;100.00
72116;BME280;59991;52.140;5.428;2023-02-23T01:16:59;101331.03;;;7.41;100.00
72116;BME280;59991;52.140;5.428;2023-02-23T01:17:30;101326.75;;;7.40;100.00
72116;BME280;59991;52.140;5.428;2023-02-23T01:18:02;101326.06;;;7.43;100.00
72116;BME280;59991;52.140;5.428;2023-02-23T01:18:35;101331.84;;;7.42;100.00
72116;BME280;59991;52.140;5.428;2023-02-23T01:19:09;101329.91;;;7.42;100.00
72116;BME280;59991;52.140;5.428;2023-02-23T01:19:40;101335.34;;;7.42;100.00
72116;BME280;59991;52.140;5.428;2023-02-23T01:20:14;101326.75;;;7.40;100.00
72116;BME280;59991;52.140;5.428;2023-02-23T01:20:48;101329.13;;;7.42;100.00
72116;BME280;59991;52.140;5.428;2023-02-23T01:21:26;101335.34;;;7.42;100.00
72116;BME280;59991;52.140;5.428;2023-02-23T01:21:58;101329.47;;;7.40;100.00
72116;BME280;59991;52.140;5.428;2023-02-23T01:22:30;101329.91;;;7.42;100.00
72116;BME280;59991;52.140;5.428;2023-02-23T01:23:02;101332.63;;;7.42;100.00
72116;BME280;59991;52.140;5.428;2023-02-23T01:23:34;101331.72;;;7.38;100.00
72116;BME280;59991;52.140;5.428;2023-02-23T01:24:06;101325.50;;;7.38;100.00
72116;BME280;59991;52.140;5.428;2023-02-23T01:24:37;101326.97;;;7.35;100.00
72116;BME280;59991;52.140;5.428;2023-02-23T01:25:09;101331.63;;;7.35;100.00
72116;BME280;59991;52.140;5.428;2023-02-23T01:25:44;101331.97;;;7.33;100.00
72116;BME280;59991;52.140;5.428;2023-02-23T01:26:22;101336.69;;;7.36;100.00
72116;BME280;59991;52.140;5.428;2023-02-23T01:26:54;101334.34;;;7.35;100.00
72116;BME280;59991;52.140;5.428;2023-02-23T01:27:25;101330.47;;;7.36;100.00
72116;BME280;59991;52.140;5.428;2023-02-23T01:27:57;101329.25;;;7.33;100.00
72116;BME280;59991;52.140;5.428;2023-02-23T01:28:28;101329.25;;;7.33;100.00
72116;BME280;59991;52.140;5.428;2023-02-23T01:29:06;101338.28;;;7.37;100.00
72116;BME280;59991;52.140;5.428;2023-02-23T01:29:40;101327.66;;;7.32;100.00
72116;BME280;59991;52.140;5.428;2023-02-23T01:30:13;101336.38;;;7.38;100.00
72116;BME280;59991;52.140;5.428;2023-02-23T01:30:45;101339.06;;;7.38;100.00
72116;BME280;59991;52.140;5.428;2023-02-23T01:31:17;101333.53;;;7.34;100.00
72116;BME280;59991;52.140;5.428;2023-02-23T01:31:50;101334.44;;;7.38;100.00
72116;BME280;59991;52.140;5.428;2023-02-23T01:32:22;101336.69;;;7.36;100.00
72116;BME280;59991;52.140;5.428;2023-02-23T01:32:53;101331.28;;;7.36;100.00
72116;BME280;59991;52.140;5.428;2023-02-23T01:33:24;101340.66;;;7.39;100.00
72116;BME280;59991;52.140;5.428;2023-02-23T01:33:58;101341.44;;;7.39;100.00
72116;BME280;59991;52.140;5.428;2023-02-23T01:34:30;101335.22;;;7.39;100.00
72116;BME280;59991;52.140;5.428;2023-02-23T01:35:04;101337.94;;;7.39;100.00
72116;BME280;59991;52.140;5.428;2023-02-23T01:35:35;101336.03;;;7.39;100.00
72116;BME280;59991;52.140;5.428;2023-02-23T01:36:07;101333.19;;;7.36;100.00
72116;BME280;59991;52.140;5.428;2023-02-23T01:36:40;101339.06;;;7.38;100.00
72116;BME280;59991;52.140;5.428;2023-02-23T01:37:12;101338.72;;;7.39;100.00
72116;BME280;59991;52.140;5.428;2023-02-23T01:37:43;101342.25;;;7.40;100.00
72116;BME280;59991;52.140;5.428;2023-02-23T01:38:15;101330.47;;;7.36;100.00
72116;BME280;59991;52.140;5.428;2023-02-23T01:38:46;101332.84;;;7.37;100.00
72116;BME280;59991;52.140;5.428;2023-02-23T01:39:19;101336.81;;;7.40;100.00
72116;BME280;59991;52.140;5.428;2023-02-23T01:39:51;101340.31;;;7.40;100.00
72116;BME280;59991;52.140;5.428;2023-02-23T01:40:23;101334.88;;;7.40;100.00
72116;BME280;59991;52.140;5.428;2023-02-23T01:41:01;101332.41;;;7.35;100.00
72116;BME280;59991;52.140;5.428;2023-02-23T01:41:34;101337.94;;;7.39;100.00
72116;BME280;59991;52.140;5.428;2023-02-23T01:42:12;101334.00;;;7.36;100.00
72116;BME280;59991;52.140;5.428;2023-02-23T01:42:45;101336.03;;;7.39;100.00
72116;BME280;59991;52.140;5.428;2023-02-23T01:43:19;101336.81;;;7.40;100.00
72116;BME280;59991;52.140;5.428;2023-02-23T01:45:22;101345.41;;;7.42;100.00
72116;BME280;59991;52.140;5.428;2023-02-23T01:45:55;101347.31;;;7.41;100.00
72116;BME280;59991;52.140;5.428;2023-02-23T01:46:30;101342.69;;;7.42;100.00
72116;BME280;59991;52.140;5.428;2023-02-23T01:47:03;101339.19;;;7.41;100.00
72116;BME280;59991;52.140;5.428;2023-02-23T01:47:34;101343.81;;;7.41;100.00
72116;BME280;59991;52.140;5.428;2023-02-23T01:48:14;101341.44;;;7.39;100.00
72116;BME280;59991;52.140;5.428;2023-02-23T01:48:47;101339.97;;;7.42;100.00
72116;BME280;59991;52.140;5.428;2023-02-23T01:49:22;101339.97;;;7.42;100.00
72116;BME280;59991;52.140;5.428;2023-02-23T01:49:56;101332.50;;;7.39;100.00
72116;BME280;59991;52.140;5.428;2023-02-23T01:50:35;101335.22;;;7.39;100.00
72116;BME280;59991;52.140;5.428;2023-02-23T01:51:10;101344.94;;;7.40;100.00
72116;BME280;59991;52.140;5.428;2023-02-23T01:51:48;101341.09;;;7.41;100.00
72116;BME280;59991;52.140;5.428;2023-02-23T01:52:20;101339.53;;;7.40;100.00
72116;BME280;59991;52.140;5.428;2023-02-23T01:52:51;101333.66;;;7.38;100.00
72116;BME280;59991;52.140;5.428;2023-02-23T01:53:25;101334.88;;;7.40;100.00
72116;BME280;59991;52.140;5.428;2023-02-23T01:54:09;101338.41;;;7.41;100.00
72116;BME280;59991;52.140;5.428;2023-02-23T01:54:47;101348.47;;;7.40;100.00
72116;BME280;59991;52.140;5.428;2023-02-23T01:55:22;101339.53;;;7.40;100.00
72116;BME280;59991;52.140;5.428;2023-02-23T01:55:57;101327.78;;;7.36;100.00
72116;BME280;59991;52.140;5.428;2023-02-23T01:56:35;101338.06;;;7.42;100.00
72116;BME280;59991;52.140;5.428;2023-02-23T01:57:15;101332.19;;;7.40;100.00
72116;BME280;59991;52.140;5.428;2023-02-23T01:58:06;101330.72;;;7.43;100.00
72116;BME280;59991;52.140;5.428;2023-02-23T01:58:45;101329.91;;;7.42;100.00
72116;BME280;59991;52.140;5.428;2023-02-23T01:59:17;101335.22;;;7.39;100.00
72116;BME280;59991;52.140;5.428;2023-02-23T01:59:49;101331.72;;;7.38;100.00
72116;BME280;59991;52.140;5.428;2023-02-23T02:00:22;101334.44;;;7.38;100.00
72116;BME280;59991;52.140;5.428;2023-02-23T02:00:57;101329.00;;;7.38;100.00
72116;BME280;59991;52.140;5.428;2023-02-23T02:01:32;101326.97;;;7.35;100.00
72116;BME280;59991;52.140;5.428;2023-02-23T02:02:04;101329.34;;;7.37;100.00
72116;BME280;59991;52.140;5.428;2023-02-23T02:02:39;101337.16;;;7.38;100.00
72116;BME280;59991;52.140;5.428;2023-02-23T02:03:14;101339.88;;;7.38;100.00
72116;BME280;59991;52.140;5.428;2023-02-23T02:03:52;101331.28;;;7.36;100.00
72116;BME280;59991;52.140;5.428;2023-02-23T02:04:24;101337.16;;;7.38;100.00
72116;BME280;59991;52.140;5.428;2023-02-23T02:04:56;101336.03;;;7.39;100.00
72116;BME280;59991;52.140;5.428;2023-02-23T02:05:28;101330.94;;;7.38;100.00
72116;BME280;59991;52.140;5.428;2023-02-23T02:06:01;101334.44;;;7.38;100.00
72116;BME280;59991;52.140;5.428;2023-02-23T02:06:35;101330.47;;;7.36;100.00
72116;BME280;59991;52.140;5.428;2023-02-23T02:07:06;101334.88;;;7.40;100.00
72116;BME280;59991;52.140;5.428;2023-02-23T02:07:41;101338.72;;;7.39;100.00
72116;BME280;59991;52.140;5.428;2023-02-23T02:08:17;101340.31;;;7.40;100.00
72116;BME280;59991;52.140;5.428;2023-02-23T02:08:51;101341.91;;;7.41;100.00
72116;BME280;59991;52.140;5.428;2023-02-23T02:09:25;101341.44;;;7.39;100.00
72116;BME280;59991;52.140;5.428;2023-02-23T02:09:58;101336.47;;;7.41;100.00
72116;BME280;59991;52.140;5.428;2023-02-23T02:10:42;101339.19;;;7.41;100.00
72116;BME280;59991;52.140;5.428;2023-02-23T02:11:18;101335.69;;;7.41;100.00
72116;BME280;59991;52.140;5.428;2023-02-23T02:12:10;101337.59;;;7.40;100.00
72116;BME280;59991;52.140;5.428;2023-02-23T02:12:44;101342.69;;;7.42;100.00
72116;BME280;59991;52.140;5.428;2023-02-23T02:13:19;101343.03;;;7.40;100.00
72116;BME280;59991;52.140;5.428;2023-02-23T02:13:53;101337.25;;;7.42;100.00
72116;BME280;59991;52.140;5.428;2023-02-23T02:14:28;101341.09;;;7.41;100.00
72116;BME280;59991;52.140;5.428;2023-02-23T02:15:03;101340.31;;;7.40;100.00
72116;BME280;59991;52.140;5.428;2023-02-23T02:16:35;101337.59;;;7.40;100.00
72116;BME280;59991;52.140;5.428;2023-02-23T02:18:47;101338.41;;;7.41;100.00
72116;BME280;59991;52.140;5.428;2023-02-23T02:22:05;101341.91;;;7.41;100.00
72116;BME280;59991;52.140;5.428;2023-02-23T02:24:07;101341.91;;;7.41;100.00
72116;BME280;59991;52.140;5.428;2023-02-23T02:25:11;101339.97;;;7.42;100.00
72116;BME280;59991;52.140;5.428;2023-02-23T02:25:58;101341.09;;;7.41;100.00
72116;BME280;59991;52.140;5.428;2023-02-23T02:27:23;101344.94;;;7.40;100.00
72116;BME280;59991;52.140;5.428;2023-02-23T02:30:03;101346.09;;;7.39;100.00
72116;BME280;59991;52.140;5.428;2023-02-23T02:38:04;101346.88;;;7.39;100.00
72116;BME280;59991;52.140;5.428;2023-02-23T02:40:20;101342.91;;;7.37;100.00
72116;BME280;59991;52.140;5.428;2023-02-23T02:41:06;101346.75;;;7.36;100.00
72116;BME280;59991;52.140;5.428;2023-02-23T02:42:05;101351.50;;;7.39;100.00
72116;BME280;59991;52.140;5.428;2023-02-23T02:42:49;101344.50;;;7.38;100.00
72116;BME280;59991;52.140;5.428;2023-02-23T02:45:51;101342.91;;;7.37;100.00
72116;BME280;59991;52.140;5.428;2023-02-23T02:46:37;101347.56;;;7.36;100.00
72116;BME280;59991;52.140;5.428;2023-02-23T02:47:18;101342.47;;;7.35;100.00
72116;BME280;59991;52.140;5.428;2023-02-23T02:48:32;101345.97;;;7.35;100.00
72116;BME280;59991;52.140;5.428;2023-02-23T02:49:21;101342.13;;;7.36;100.00
72116;BME280;59991;52.140;5.428;2023-02-23T02:50:09;101342.47;;;7.35;100.00
72116;BME280;59991;52.140;5.428;2023-02-23T02:50:59;101343.25;;;7.35;100.00
72116;BME280;59991;52.140;5.428;2023-02-23T02:51:43;101342.91;;;7.37;100.00
72116;BME280;59991;52.140;5.428;2023-02-23T02:52:31;101330.81;;;7.34;100.00
72116;BME280;59991;52.140;5.428;2023-02-23T02:53:11;101334.25;;;7.31;100.00
72116;BME280;59991;52.140;5.428;2023-02-23T02:53:47;101339.41;;;7.36;100.00
72116;BME280;59991;52.140;5.428;2023-02-23T02:54:30;101342.91;;;7.37;100.00
72116;BME280;59991;52.140;5.428;2023-02-23T02:56:10;101342.13;;;7.36;100.00
72116;BME280;59991;52.140;5.428;2023-02-23T02:56:43;101334.66;;;7.33;100.00
72116;BME280;59991;52.140;5.428;2023-02-23T02:57:17;101337.38;;;7.33;100.00
72116;BME280;59991;52.140;5.428;2023-02-23T02:57:52;101332.75;;;7.34;100.00
72116;BME280;59991;52.140;5.428;2023-02-23T02:58:26;101336.25;;;7.34;100.00
72116;BME280;59991;52.140;5.428;2023-02-23T02:58:59;101335.13;;;7.35;100.00
72116;BME280;59991;52.140;5.428;2023-02-23T02:59:45;101329.25;;;7.33;100.00
72116;BME280;59991;52.140;5.428;2023-02-23T03:00:38;101333.53;;;7.34;100.00
72116;BME280;59991;52.140;5.428;2023-02-23T03:01:29;101339.41;;;7.36;100.00
72116;BME280;59991;52.140;5.428;2023-02-23T03:02:21;101328.56;;;7.36;100.00
72116;BME280;59991;52.140;5.428;2023-02-23T03:03:28;101335.91;;;7.36;100.00
72116;BME280;59991;52.140;5.428;2023-02-23T03:04:21;101339.75;;;7.35;100.00
72116;BME280;59991;52.140;5.428;2023-02-23T03:05:18;101328.91;;;7.35;100.00
72116;BME280;59991;52.140;5.428;2023-02-23T03:06:08;101341.34;;;7.36;100.00
72116;BME280;59991;52.140;5.428;2023-02-23T03:07:04;101332.41;;;7.35;100.00
72116;BME280;59991;52.140;5.428;2023-02-23T03:08:08;101333.53;;;7.34;100.00
72116;BME280;59991;52.140;5.428;2023-02-23T03:09:14;101334.34;;;7.35;100.00
72116;BME280;59991;52.140;5.428;2023-02-23T03:10:43;101342.03;;;7.33;100.00
72116;BME280;59991;52.140;5.428;2023-02-23T03:11:39;101335.81;;;7.32;100.00
72116;BME280;59991;52.140;5.428;2023-02-23T03:12:38;101336.19;;;7.31;100.00
72116;BME280;59991;52.140;5.428;2023-02-23T03:14:48;101334.94;;;7.28;100.00
72116;BME280;59991;52.140;5.428;2023-02-23T03:15:49;101338.44;;;7.28;100.00
72116;BME280;59991;52.140;5.428;2023-02-23T03:18:31;101339.91;;;7.26;100.00
72116;BME280;59991;52.140;5.428;2023-02-23T03:19:29;101341.81;;;7.25;100.00
72116;BME280;59991;52.140;5.428;2023-02-23T03:21:24;101341.03;;;7.25;100.00
72116;BME280;59991;52.140;5.428;2023-02-23T03:22:21;101341.03;;;7.25;100.00
72116;BME280;59991;52.140;5.428;2023-02-23T03:23:18;101348.38;;;7.24;100.00
72116;BME280;59991;52.140;5.428;2023-02-23T03:25:45;101340.25;;;7.24;100.00
72116;BME280;59991;52.140;5.428;2023-02-23T03:26:45;101339.44;;;7.24;100.00
72116;BME280;59991;52.140;5.428;2023-02-23T03:27:59;101342.97;;;7.24;100.00
72116;BME280;59991;52.140;5.428;2023-02-23T03:29:24;101335.59;;;7.25;100.00
72116;BME280;59991;52.140;5.428;2023-02-23T03:30:36;101345.66;;;7.24;100.00
72116;BME280;59991;52.140;5.428;2023-02-23T03:31:45;101342.16;;;7.24;100.00
72116;BME280;59991;52.140;5.428;2023-02-23T03:33:45;101341.38;;;7.23;100.00
72116;BME280;59991;52.140;5.428;2023-02-23T03:34:43;101344.88;;;7.24;100.00
72116;BME280;59991;52.140;5.428;2023-02-23T03:36:16;101338.66;;;7.23;100.00
72116;BME280;59991;52.140;5.428;2023-02-23T03:37:15;101344.09;;;7.23;100.00
72116;BME280;59991;52.140;5.428;2023-02-23T03:38:16;101339.00;;;7.22;100.00
72116;BME280;59991;52.140;5.428;2023-02-23T03:39:19;101348.28;;;7.21;100.00
72116;BME280;59991;52.140;5.428;2023-02-23T03:40:26;101342.84;;;7.21;100.00
72116;BME280;59991;52.140;5.428;2023-02-23T03:41:19;101346.34;;;7.21;100.00
72116;BME280;59991;52.140;5.428;2023-02-23T03:42:16;101348.28;;;7.21;100.00
72116;BME280;59991;52.140;5.428;2023-02-23T03:43:12;101350.97;;;7.21;100.00
72116;BME280;59991;52.140;5.428;2023-02-23T03:44:08;101350.19;;;7.20;100.00
72116;BME280;59991;52.140;5.428;2023-02-23T03:45:05;101350.19;;;7.20;100.00
72116;BME280;59991;52.140;5.428;2023-02-23T03:45:57;101357.19;;;7.21;100.00
72116;BME280;59991;52.140;5.428;2023-02-23T03:46:50;101353.69;;;7.21;100.00
72116;BME280;59991;52.140;5.428;2023-02-23T03:47:42;101352.91;;;7.20;100.00
72116;BME280;59991;52.140;5.428;2023-02-23T03:48:35;101356.41;;;7.21;100.00
72116;BME280;59991;52.140;5.428;2023-02-23T03:49:29;101360.25;;;7.20;100.00
72116;BME280;59991;52.140;5.428;2023-02-23T03:50:29;101355.63;;;7.20;100.00
72116;BME280;59991;52.140;5.428;2023-02-23T03:51:23;101358.31;;;7.20;100.00
72116;BME280;59991;52.140;5.428;2023-02-23T03:52:17;101366.47;;;7.20;100.00